createdAt,value
2022-12-18T00:01:24.337Z,100.00
2022-12-18T00:03:52.614Z,100.00
2022-12-18T00:06:20.978Z,100.00
2022-12-18T00:08:48.111Z,100.00
2022-12-18T00:11:17.849Z,100.00
2022-12-18T00:13:45.615Z,100.00
2022-12-18T00:16:19.584Z,100.00
2022-12-18T00:18:46.728Z,100.00
2022-12-18T00:21:15.415Z,100.00
2022-12-18T00:23:44.669Z,100.00
2022-12-18T00:26:24.046Z,100.00
2022-12-18T00:28:56.687Z,100.00
2022-12-18T00:31:25.559Z,100.00
2022-12-18T00:33:58.197Z,100.00
2022-12-18T00:36:28.018Z,100.00
2022-12-18T00:38:56.661Z,100.00
2022-12-18T00:41:43.323Z,100.00
2022-12-18T00:44:13.333Z,100.00
2022-12-18T00:46:41.270Z,100.00
2022-12-18T00:49:08.548Z,100.00
2022-12-18T00:51:36.023Z,100.00
2022-12-18T00:54:03.448Z,100.00
2022-12-18T00:56:31.456Z,100.00
2022-12-18T00:58:58.537Z,100.00
2022-12-18T01:01:25.672Z,100.00
2022-12-18T01:03:52.840Z,100.00
2022-12-18T01:06:21.042Z,100.00
2022-12-18T01:08:48.084Z,100.00
2022-12-18T01:11:21.366Z,100.00
2022-12-18T01:13:48.925Z,100.00
2022-12-18T01:16:17.918Z,100.00
2022-12-18T01:18:45.348Z,100.00
2022-12-18T01:21:17.260Z,100.00
2022-12-18T01:23:44.298Z,100.00
2022-12-18T01:26:16.114Z,100.00
2022-12-18T01:28:45.144Z,100.00
2022-12-18T01:31:15.047Z,99.35
2022-12-18T01:33:42.496Z,99.15
2022-12-18T01:36:15.402Z,99.02
2022-12-18T01:38:42.500Z,98.90
2022-12-18T01:41:10.724Z,100.00
2022-12-18T01:43:49.661Z,98.36
2022-12-18T01:46:18.492Z,99.05
2022-12-18T01:48:49.192Z,98.82
2022-12-18T01:51:17.006Z,97.24
2022-12-18T01:53:46.165Z,96.33
2022-12-18T01:56:18.954Z,97.22
2022-12-18T01:58:58.387Z,97.10
2022-12-18T02:01:26.572Z,98.78
2022-12-18T02:03:54.104Z,97.47
2022-12-18T02:06:30.652Z,97.35
2022-12-18T02:09:07.272Z,97.84
2022-12-18T02:11:40.699Z,99.56
2022-12-18T02:14:12.139Z,100.00
2022-12-18T02:17:02.927Z,100.00
2022-12-18T02:20:00.454Z,100.00
2022-12-18T02:22:27.495Z,100.00
2022-12-18T02:25:12.869Z,100.00
2022-12-18T02:27:41.568Z,99.01
2022-12-18T02:30:09.727Z,99.99
2022-12-18T02:32:43.211Z,100.00
2022-12-18T02:35:16.026Z,99.58
2022-12-18T02:37:46.018Z,99.13
2022-12-18T02:40:15.012Z,98.39
2022-12-18T02:42:42.227Z,99.38
2022-12-18T02:45:11.371Z,99.22
2022-12-18T02:47:41.973Z,99.71
2022-12-18T02:50:28.310Z,99.46
2022-12-18T02:53:10.083Z,98.66
2022-12-18T02:55:55.884Z,98.11
2022-12-18T02:58:32.004Z,98.13
2022-12-18T03:01:16.457Z,97.33
2022-12-18T03:03:47.900Z,98.15
2022-12-18T03:06:24.774Z,99.75
2022-12-18T03:09:00.736Z,99.37
2022-12-18T03:11:49.777Z,98.93
2022-12-18T03:14:21.190Z,98.02
2022-12-18T03:16:54.308Z,98.26
2022-12-18T03:19:25.335Z,99.21
2022-12-18T03:21:56.849Z,98.68
2022-12-18T03:24:29.967Z,99.48
2022-12-18T03:27:02.827Z,100.00
2022-12-18T03:29:52.363Z,99.60
2022-12-18T03:32:30.726Z,100.00
2022-12-18T03:35:03.872Z,100.00
2022-12-18T03:37:34.723Z,100.00
2022-12-18T03:40:02.205Z,100.00
2022-12-18T03:42:36.272Z,100.00
2022-12-18T03:45:15.406Z,100.00
2022-12-18T03:48:05.321Z,100.00
2022-12-18T03:51:19.480Z,100.00
2022-12-18T03:53:50.248Z,100.00
2022-12-18T03:56:23.652Z,100.00
2022-12-18T03:58:53.808Z,100.00
2022-12-18T04:01:30.685Z,100.00
2022-12-18T04:04:01.817Z,100.00
2022-12-18T04:06:35.628Z,100.00
2022-12-18T04:09:02.983Z,100.00
2022-12-18T04:11:33.237Z,100.00
2022-12-18T04:14:07.049Z,99.71
2022-12-18T04:16:34.668Z,98.91
2022-12-18T04:19:04.671Z,99.72
2022-12-18T04:21:38.037Z,99.02
2022-12-18T04:24:06.060Z,99.30
2022-12-18T04:26:35.589Z,100.00
2022-12-18T04:29:22.753Z,100.00
2022-12-18T04:31:49.976Z,100.00
2022-12-18T04:34:17.410Z,99.51
2022-12-18T04:36:50.031Z,100.00
2022-12-18T04:39:18.923Z,100.00
2022-12-18T04:41:46.855Z,100.00
2022-12-18T04:44:15.009Z,100.00
2022-12-18T04:46:42.153Z,100.00
2022-12-18T04:49:09.288Z,100.00
2022-12-18T04:51:36.240Z,100.00
2022-12-18T04:54:03.376Z,100.00
2022-12-18T04:56:32.851Z,99.40
2022-12-18T04:58:59.818Z,97.16
2022-12-18T05:01:32.547Z,97.01
2022-12-18T05:04:02.297Z,95.82
2022-12-18T05:06:29.425Z,96.85
2022-12-18T05:08:56.540Z,95.65
2022-12-18T05:11:23.676Z,96.26
2022-12-18T05:13:50.662Z,96.56
2022-12-18T05:16:17.799Z,97.29
2022-12-18T05:18:44.805Z,99.77
2022-12-18T05:21:11.917Z,100.00
2022-12-18T05:23:39.293Z,99.57
2022-12-18T05:26:08.958Z,97.49
2022-12-18T05:28:37.325Z,97.86
2022-12-18T05:31:05.534Z,98.13
2022-12-18T05:33:35.418Z,97.65
2022-12-18T05:36:06.270Z,98.04
2022-12-18T05:38:35.090Z,99.29
2022-12-18T05:41:02.364Z,100.00
2022-12-18T05:43:29.895Z,100.00
2022-12-18T05:45:58.612Z,97.61
2022-12-18T05:48:26.072Z,97.88
2022-12-18T05:50:53.036Z,95.89
2022-12-18T05:53:21.392Z,96.17
2022-12-18T05:55:48.897Z,96.59
2022-12-18T05:58:16.892Z,96.49
2022-12-18T06:00:47.035Z,98.00
2022-12-18T06:03:14.649Z,98.50
2022-12-18T06:05:46.303Z,97.17
2022-12-18T06:08:14.293Z,95.75
2022-12-18T06:10:42.665Z,94.47
2022-12-18T06:13:09.772Z,96.43
2022-12-18T06:15:40.031Z,95.87
2022-12-18T06:18:07.015Z,94.03
2022-12-18T06:20:34.779Z,93.12
2022-12-18T06:23:01.780Z,94.94
2022-12-18T06:25:28.854Z,96.15
2022-12-18T06:27:55.887Z,94.18
2022-12-18T06:30:23.004Z,94.01
2022-12-18T06:32:56.324Z,95.02
2022-12-18T06:35:24.139Z,97.35
2022-12-18T06:37:51.268Z,97.60
2022-12-18T06:40:18.373Z,96.09
2022-12-18T06:42:45.390Z,92.91
2022-12-18T06:45:12.673Z,92.00
2022-12-18T06:47:39.750Z,92.32
2022-12-18T06:50:07.390Z,91.04
2022-12-18T06:52:34.733Z,91.74
2022-12-18T06:55:01.839Z,88.81
2022-12-18T06:57:29.972Z,89.83
2022-12-18T06:59:56.986Z,87.38
2022-12-18T07:02:24.104Z,88.82
2022-12-18T07:04:51.160Z,89.22
2022-12-18T07:07:18.523Z,88.63
2022-12-18T07:09:45.488Z,88.31
2022-12-18T07:12:12.555Z,88.44
2022-12-18T07:14:39.564Z,87.95
2022-12-18T07:17:06.695Z,88.25
2022-12-18T07:19:34.342Z,88.98
2022-12-18T07:22:01.645Z,88.28
2022-12-18T07:24:29.516Z,86.88
2022-12-18T07:26:56.494Z,87.04
2022-12-18T07:29:23.512Z,86.24
2022-12-18T07:31:50.491Z,84.12
2022-12-18T07:34:18.692Z,81.43
2022-12-18T07:36:45.720Z,82.47
2022-12-18T07:39:13.158Z,82.54
2022-12-18T07:41:46.702Z,80.96
2022-12-18T07:44:16.538Z,80.47
2022-12-18T07:46:43.549Z,81.08
2022-12-18T07:49:10.532Z,80.90
2022-12-18T07:51:37.531Z,82.78
2022-12-18T07:54:04.581Z,83.72
2022-12-18T07:56:31.771Z,82.39
2022-12-18T07:59:00.105Z,82.59
2022-12-18T08:01:29.674Z,83.12
2022-12-18T08:03:58.637Z,83.75
2022-12-18T08:06:28.011Z,82.84
2022-12-18T08:08:56.534Z,80.97
2022-12-18T08:11:25.623Z,82.52
2022-12-18T08:13:53.522Z,82.33
2022-12-18T08:16:21.333Z,82.86
2022-12-18T08:18:49.613Z,82.54
2022-12-18T08:21:22.164Z,81.90
2022-12-18T08:23:51.337Z,81.09
2022-12-18T08:26:19.541Z,80.51
2022-12-18T08:28:48.629Z,82.48
2022-12-18T08:31:16.697Z,80.05
2022-12-18T08:33:44.088Z,79.98
2022-12-18T08:36:11.436Z,80.26
2022-12-18T08:38:38.690Z,79.78
2022-12-18T08:41:11.019Z,82.03
2022-12-18T08:43:56.748Z,82.08
2022-12-18T08:46:25.916Z,81.99
2022-12-18T08:48:54.510Z,82.21
2022-12-18T08:51:21.666Z,82.26
2022-12-18T08:53:48.948Z,80.47
2022-12-18T08:56:16.117Z,80.73
2022-12-18T08:58:43.374Z,81.27
2022-12-18T09:01:12.402Z,82.18
2022-12-18T09:03:40.660Z,82.25
2022-12-18T09:06:08.777Z,82.06
2022-12-18T09:08:38.012Z,82.86
2022-12-18T09:11:05.624Z,81.98
2022-12-18T09:13:32.674Z,80.49
2022-12-18T09:15:59.737Z,81.64
2022-12-18T09:18:26.696Z,83.09
2022-12-18T09:20:53.991Z,83.72
2022-12-18T09:23:22.281Z,82.62
2022-12-18T09:25:49.732Z,83.02
2022-12-18T09:28:19.334Z,82.74
2022-12-18T09:31:08.474Z,82.49
2022-12-18T09:33:39.335Z,81.61
2022-12-18T09:36:09.632Z,81.10
2022-12-18T09:38:37.142Z,81.46
2022-12-18T09:41:19.593Z,81.00
2022-12-18T09:44:01.654Z,81.72
2022-12-18T09:46:34.170Z,81.84
2022-12-18T09:49:06.263Z,82.86
2022-12-18T09:51:48.316Z,82.64
2022-12-18T09:54:25.467Z,83.51
2022-12-18T09:56:53.417Z,82.87
2022-12-18T09:59:42.767Z,82.57
2022-12-18T10:02:22.539Z,81.14
2022-12-18T10:05:06.502Z,84.17
2022-12-18T10:07:42.999Z,84.52
2022-12-18T10:10:22.486Z,83.29
2022-12-18T10:13:16.758Z,84.13
2022-12-18T10:15:52.931Z,84.06
2022-12-18T10:18:38.241Z,84.97
2022-12-18T10:21:16.891Z,82.31
2022-12-18T10:24:01.713Z,86.17
2022-12-18T10:26:28.691Z,85.91
2022-12-18T10:29:02.151Z,85.33
2022-12-18T10:31:32.464Z,85.23
2022-12-18T10:33:59.614Z,87.61
2022-12-18T10:36:27.535Z,88.08
2022-12-18T10:38:54.534Z,88.56
2022-12-18T10:41:23.178Z,87.83
2022-12-18T10:44:20.313Z,89.64
2022-12-18T10:46:50.349Z,88.11
2022-12-18T10:49:49.620Z,87.33
2022-12-18T10:52:20.611Z,87.83
2022-12-18T10:55:00.568Z,87.99
2022-12-18T10:57:27.490Z,89.75
2022-12-18T10:59:56.854Z,88.32
2022-12-18T11:02:37.055Z,87.84
2022-12-18T11:05:24.389Z,88.87
2022-12-18T11:07:54.795Z,88.37
2022-12-18T11:10:36.584Z,90.57
2022-12-18T11:13:21.431Z,92.74
2022-12-18T11:15:49.414Z,92.86
2022-12-18T11:18:35.867Z,90.31
2022-12-18T11:21:09.065Z,88.43
2022-12-18T11:23:37.320Z,88.62
2022-12-18T11:26:07.091Z,88.64
2022-12-18T11:28:37.535Z,94.49
2022-12-18T11:31:32.444Z,96.14
2022-12-18T11:34:28.073Z,95.24
2022-12-18T11:36:49.531Z,93.94
2022-12-18T11:39:46.981Z,95.52
2022-12-18T11:42:24.164Z,95.50
2022-12-18T11:45:00.130Z,97.50
2022-12-18T11:47:45.103Z,94.10
2022-12-18T11:50:18.555Z,93.74
2022-12-18T11:52:47.128Z,91.89
2022-12-18T11:55:22.406Z,90.65
2022-12-18T11:58:02.856Z,90.17
2022-12-18T12:00:29.966Z,89.07
2022-12-18T12:03:25.593Z,88.74
2022-12-18T12:06:01.580Z,89.41
2022-12-18T12:08:52.134Z,87.06
2022-12-18T12:11:26.709Z,88.77
2022-12-18T12:14:15.690Z,89.28
2022-12-18T12:16:49.223Z,88.16
2022-12-18T12:19:40.906Z,88.26
2022-12-18T12:22:16.908Z,87.71
2022-12-18T12:25:19.252Z,88.08
2022-12-18T12:27:58.426Z,87.42
2022-12-18T12:30:38.359Z,88.98
2022-12-18T12:33:26.460Z,88.62
2022-12-18T12:36:08.502Z,89.99
2022-12-18T12:38:58.793Z,90.08
2022-12-18T12:41:55.224Z,89.51
2022-12-18T12:44:33.517Z,89.24
2022-12-18T12:47:05.811Z,88.43
2022-12-18T12:49:39.027Z,88.08
2022-12-18T12:52:14.593Z,88.50
2022-12-18T12:54:43.281Z,91.02
2022-12-18T12:57:20.939Z,90.68
2022-12-18T13:00:04.753Z,91.24
2022-12-18T13:02:55.278Z,94.01
2022-12-18T13:05:31.219Z,95.18
2022-12-18T13:07:59.320Z,94.57
2022-12-18T13:10:34.039Z,94.13
2022-12-18T13:13:21.146Z,92.17
2022-12-18T13:16:06.025Z,94.07
2022-12-18T13:18:34.428Z,91.82
2022-12-18T13:21:03.314Z,91.79
2022-12-18T13:23:32.932Z,91.35
2022-12-18T13:26:11.542Z,90.43
2022-12-18T13:28:47.909Z,91.55
2022-12-18T13:31:39.811Z,91.11
2022-12-18T13:34:31.456Z,90.37
2022-12-18T13:37:33.917Z,89.50
2022-12-18T13:40:01.332Z,89.47
2022-12-18T13:42:57.684Z,90.22
2022-12-18T13:45:50.274Z,90.24
2022-12-18T13:48:24.446Z,93.73
2022-12-18T13:51:01.835Z,95.03
2022-12-18T13:53:44.647Z,95.94
2022-12-18T13:56:22.641Z,96.99
2022-12-18T13:59:22.830Z,100.00
2022-12-18T14:01:55.156Z,100.00
2022-12-18T14:04:24.129Z,100.00
2022-12-18T14:06:54.461Z,98.14
2022-12-18T14:09:29.137Z,97.93
2022-12-18T14:12:18.168Z,99.12
2022-12-18T14:14:51.525Z,100.00
2022-12-18T14:17:22.023Z,98.31
2022-12-18T14:19:52.300Z,98.76
2022-12-18T14:22:22.840Z,99.54
2022-12-18T14:25:17.001Z,98.29
2022-12-18T14:27:53.288Z,98.00
2022-12-18T14:30:29.131Z,96.39
2022-12-18T14:33:06.576Z,93.90
2022-12-18T14:35:35.916Z,93.09
2022-12-18T14:38:40.476Z,92.78
2022-12-18T14:41:15.605Z,91.48
2022-12-18T14:43:45.003Z,90.66
2022-12-18T14:46:35.109Z,90.40
2022-12-18T14:49:18.909Z,88.87
2022-12-18T14:52:21.290Z,87.56
2022-12-18T14:54:49.023Z,88.79
2022-12-18T14:57:26.198Z,88.04
2022-12-18T14:59:53.497Z,88.11
2022-12-18T15:02:26.466Z,87.62
2022-12-18T15:05:12.744Z,87.51
2022-12-18T15:07:44.948Z,87.77
2022-12-18T15:10:23.203Z,87.98
2022-12-18T15:13:02.565Z,88.43
2022-12-18T15:15:38.611Z,88.05
2022-12-18T15:18:12.788Z,87.17
2022-12-18T15:20:54.595Z,86.24
2022-12-18T15:23:25.508Z,87.19
2022-12-18T15:26:01.619Z,86.62
2022-12-18T15:28:39.231Z,87.32
2022-12-18T15:31:10.882Z,86.07
2022-12-18T15:33:41.811Z,85.64
2022-12-18T15:36:15.063Z,85.87
2022-12-18T15:38:42.439Z,86.91
2022-12-18T15:41:24.540Z,86.66
2022-12-18T15:43:54.261Z,86.42
2022-12-18T15:46:24.059Z,85.60
2022-12-18T15:49:01.393Z,84.58
2022-12-18T15:51:33.560Z,83.22
2022-12-18T15:54:04.836Z,83.24
2022-12-18T15:56:50.751Z,84.64
2022-12-18T15:59:20.424Z,85.08
2022-12-18T16:01:50.752Z,86.55
2022-12-18T16:04:23.282Z,84.97
2022-12-18T16:07:13.874Z,83.93
2022-12-18T16:09:38.286Z,83.58
2022-12-18T16:12:06.465Z,83.17
2022-12-18T16:14:33.558Z,83.66
2022-12-18T16:17:03.867Z,83.58
2022-12-18T16:19:31.169Z,84.44
2022-12-18T16:21:59.792Z,83.36
2022-12-18T16:24:32.844Z,83.83
2022-12-18T16:27:01.392Z,84.75
2022-12-18T16:29:30.010Z,84.62
2022-12-18T16:31:58.595Z,85.06
2022-12-18T16:34:29.307Z,83.87
2022-12-18T16:37:05.980Z,83.62
2022-12-18T16:39:35.804Z,84.01
2022-12-18T16:42:05.609Z,84.50
2022-12-18T16:44:34.678Z,84.89
2022-12-18T16:47:04.027Z,84.38
2022-12-18T16:49:31.266Z,84.22
2022-12-18T16:51:58.497Z,83.01
2022-12-18T16:54:30.604Z,84.08
2022-12-18T16:56:58.180Z,84.06
2022-12-18T16:59:26.889Z,84.73
2022-12-18T17:01:56.094Z,84.92
2022-12-18T17:04:23.718Z,84.55
2022-12-18T17:06:52.238Z,84.38
2022-12-18T17:09:26.963Z,83.24
2022-12-18T17:11:54.452Z,83.43
2022-12-18T17:14:24.288Z,83.20
2022-12-18T17:17:19.354Z,82.41
2022-12-18T17:19:39.331Z,83.06
2022-12-18T17:22:08.282Z,83.82
2022-12-18T17:24:35.841Z,83.14
2022-12-18T17:27:04.212Z,83.26
2022-12-18T17:29:31.261Z,82.56
2022-12-18T17:31:58.731Z,82.59
2022-12-18T17:34:27.931Z,81.92
2022-12-18T17:36:55.493Z,81.89
2022-12-18T17:39:22.680Z,81.95
2022-12-18T17:41:50.424Z,82.15
2022-12-18T17:44:18.416Z,80.73
2022-12-18T17:46:46.626Z,79.57
2022-12-18T17:49:14.333Z,80.18
2022-12-18T17:51:45.007Z,80.16
2022-12-18T17:54:12.057Z,80.49
2022-12-18T17:56:39.684Z,81.37
2022-12-18T17:59:07.294Z,80.97
2022-12-18T18:01:36.424Z,80.83
2022-12-18T18:04:06.036Z,79.53
2022-12-18T18:06:33.112Z,79.57
2022-12-18T18:09:01.866Z,80.28
2022-12-18T18:11:47.654Z,81.04
2022-12-18T18:14:20.450Z,81.12
2022-12-18T18:16:49.747Z,79.79
2022-12-18T18:19:22.554Z,80.29
2022-12-18T18:21:51.906Z,80.73
2022-12-18T18:24:23.602Z,81.05
2022-12-18T18:26:51.084Z,81.22
2022-12-18T18:29:21.638Z,80.74
2022-12-18T18:31:49.250Z,79.48
2022-12-18T18:34:23.231Z,80.44
2022-12-18T18:36:50.649Z,81.68
2022-12-18T18:39:18.201Z,81.03
2022-12-18T18:41:48.253Z,79.67
2022-12-18T18:44:17.038Z,79.83
2022-12-18T18:46:44.653Z,80.18
2022-12-18T18:49:13.799Z,79.88
2022-12-18T18:51:41.926Z,80.67
2022-12-18T18:54:09.913Z,80.88
2022-12-18T18:57:04.008Z,80.54
2022-12-18T18:59:24.978Z,79.54
2022-12-18T19:02:04.263Z,78.75
2022-12-18T19:04:36.622Z,78.66
2022-12-18T19:07:10.259Z,77.73
2022-12-18T19:09:37.615Z,77.64
2022-12-18T19:12:23.596Z,75.76
2022-12-18T19:14:50.637Z,76.44
2022-12-18T19:17:17.636Z,77.42
2022-12-18T19:19:44.713Z,76.09
2022-12-18T19:22:11.705Z,76.35
2022-12-18T19:24:41.472Z,76.01
2022-12-18T19:27:08.724Z,75.64
2022-12-18T19:29:35.777Z,75.44
2022-12-18T19:32:04.890Z,76.61
2022-12-18T19:34:32.076Z,77.80
2022-12-18T19:37:00.065Z,76.90
2022-12-18T19:39:27.387Z,76.91
2022-12-18T19:41:54.769Z,75.24
2022-12-18T19:44:21.858Z,74.58
2022-12-18T19:46:50.558Z,75.87
2022-12-18T19:49:18.247Z,75.74
2022-12-18T19:51:46.876Z,77.12
2022-12-18T19:54:17.241Z,76.56
2022-12-18T19:56:45.233Z,78.21
2022-12-18T19:59:13.639Z,77.77
2022-12-18T20:01:41.031Z,78.69
2022-12-18T20:04:08.325Z,77.83
2022-12-18T20:06:50.030Z,76.41
2022-12-18T20:09:17.591Z,76.64
2022-12-18T20:11:45.274Z,76.09
2022-12-18T20:14:14.078Z,76.96
2022-12-18T20:16:42.545Z,77.43
2022-12-18T20:19:12.304Z,76.62
2022-12-18T20:21:40.039Z,76.72
2022-12-18T20:24:08.439Z,77.99
2022-12-18T20:26:35.526Z,77.68
2022-12-18T20:29:02.841Z,77.46
2022-12-18T20:31:30.358Z,77.48
2022-12-18T20:34:01.495Z,78.08
2022-12-18T20:36:31.641Z,79.03
2022-12-18T20:39:01.542Z,76.48
2022-12-18T20:41:37.490Z,76.35
2022-12-18T20:44:22.236Z,75.74
2022-12-18T20:46:56.868Z,77.33
2022-12-18T20:49:26.131Z,77.94
2022-12-18T20:51:54.658Z,76.75
2022-12-18T20:54:22.381Z,77.91
2022-12-18T20:56:50.041Z,75.94
2022-12-18T20:59:17.486Z,75.61
2022-12-18T21:01:48.163Z,75.27
2022-12-18T21:04:18.414Z,75.94
2022-12-18T21:06:53.315Z,75.23
2022-12-18T21:09:23.126Z,75.39
2022-12-18T21:12:08.928Z,76.68
2022-12-18T21:14:39.470Z,78.40
2022-12-18T21:17:06.679Z,78.51
2022-12-18T21:19:33.750Z,78.16
2022-12-18T21:22:00.859Z,77.40
2022-12-18T21:24:28.194Z,79.00
2022-12-18T21:26:59.637Z,78.94
2022-12-18T21:29:26.873Z,79.14
2022-12-18T21:31:54.940Z,79.14
2022-12-18T21:34:28.050Z,77.29
2022-12-18T21:36:57.403Z,77.44
2022-12-18T21:39:25.008Z,78.02
2022-12-18T21:42:10.571Z,77.86
2022-12-18T21:44:42.298Z,78.27
2022-12-18T21:47:22.029Z,77.08
2022-12-18T21:49:53.444Z,78.64
2022-12-18T21:52:31.481Z,78.42
2022-12-18T21:55:03.083Z,77.72
2022-12-18T21:57:39.924Z,77.77
2022-12-18T22:00:18.299Z,77.08
2022-12-18T22:02:47.464Z,76.87
2022-12-18T22:05:14.715Z,76.90
2022-12-18T22:07:41.721Z,76.74
2022-12-18T22:10:09.184Z,76.78
2022-12-18T22:12:43.812Z,77.05
2022-12-18T22:15:21.501Z,77.05
2022-12-18T22:17:59.916Z,75.56
2022-12-18T22:20:28.398Z,75.37
2022-12-18T22:22:57.085Z,76.75
2022-12-18T22:25:24.153Z,77.55
2022-12-18T22:28:09.819Z,77.52
2022-12-18T22:30:36.781Z,77.37
2022-12-18T22:33:04.206Z,77.14
2022-12-18T22:35:31.211Z,77.93
2022-12-18T22:38:01.314Z,76.93
2022-12-18T22:40:28.962Z,78.69
2022-12-18T22:42:56.346Z,79.72
2022-12-18T22:45:25.159Z,79.02
2022-12-18T22:47:52.596Z,79.38
2022-12-18T22:50:20.780Z,79.46
2022-12-18T22:52:47.751Z,80.85
2022-12-18T22:55:14.783Z,79.74
2022-12-18T22:57:47.984Z,79.71
2022-12-18T23:00:20.761Z,78.66
2022-12-18T23:03:00.412Z,77.45
2022-12-18T23:05:31.422Z,77.13
2022-12-18T23:07:58.871Z,77.37
2022-12-18T23:10:26.471Z,78.16
2022-12-18T23:12:53.451Z,76.86
2022-12-18T23:15:22.866Z,76.51
2022-12-18T23:17:55.710Z,77.23
2022-12-18T23:20:22.809Z,77.94
2022-12-18T23:22:49.776Z,77.78
2022-12-18T23:25:16.884Z,79.71
2022-12-18T23:27:43.853Z,79.16
2022-12-18T23:30:11.345Z,78.37
2022-12-18T23:32:38.911Z,78.47
2022-12-18T23:35:06.430Z,78.81
2022-12-18T23:37:59.032Z,78.77
2022-12-18T23:40:21.641Z,79.80
2022-12-18T23:42:48.664Z,80.41
2022-12-18T23:45:17.959Z,80.43
2022-12-18T23:47:45.471Z,81.16
2022-12-18T23:50:15.290Z,79.77
2022-12-18T23:52:42.272Z,80.56
2022-12-18T23:55:09.364Z,79.89
2022-12-18T23:57:36.395Z,80.04
